METAR stanice u blizini

 

LYBE - Beograd / Surčin, Srbija
Ažurirano: 01/10/2023 01:30
Partly Cloudy
Partly Cloudy
 Pravac vetra Z
Vetar: Z 15 km/h
Temperatura: 19°C
Tačka rose: 14°C
Vlažnost: 73%
Pritisak: 1022 hPa
Oblaci: Partly Cloudy
Vidljivost: 10 km
Cloud details: Partly Cloudy 1006 m
2023/09/30 23:30 LYBE 302330Z 26008KT 9999 SCT033 19/14 Q1022 NOSIG
LYBT - Beograd / Batajnica, Srbija
Ažurirano: 01/10/2023 01:30
Vedro
Vedro
 Pravac vetra ZJZ
Vetar: ZJZ 11 km/h
Temperatura: 19°C
Tačka rose: 16°C
Vlažnost: 83%
Pritisak: 1022 hPa
Pregled: Vedro
Vidljivost: greater than 10 km
2023/09/30 23:30 LYBT 302330Z 25006KT CAVOK 19/16 Q1022 NOSIG
LYVR - Vršac, Srbija
Ažurirano: 01/10/2023 01:30
Vedro
Vedro
 Pravac vetra SZ
Vetar: SZ 2 km/h
Temperatura: 16°C
Tačka rose: 15°C
Vlažnost: 94%
Pritisak: 1021 hPa
Pregled: Vedro
Vidljivost: greater than 10 km
2023/09/30 23:30 LYVR 302330Z AUTO 32001KT CAVOK 16/15 Q1021
 
LYKV - Lađevci, Srbija
Ažurirano: 01/10/2023 01:30
Vedro
Vedro
 Pravac vetra varies
Vetar: varies 4 km/h
Temperatura: 13°C
Tačka rose: 13°C
Vlažnost: 100%
Pritisak: 1022 hPa
Pregled: Vedro
Vidljivost: greater than 10 km
2023/09/30 23:30 LYKV 302330Z VRB02KT CAVOK 13/13 Q1022 NOSIG
LYNI - Niš, Srbija
Ažurirano: 01/10/2023 01:30
Vedro
Vedro
 Pravac vetra calm
Vetar: Tišina
Temperatura: 13°C
Tačka rose: 10°C
Vlažnost: 82%
Pritisak: 1021 hPa
Pregled: Vedro
Vidljivost: greater than 10 km
2023/09/30 23:30 LYNI 302330Z 00000KT CAVOK 13/10 Q1021 NOSIG
BKPR - Priština, Srbija
Ažurirano: 01/10/2023 01:30
Vedro
Vedro
 Pravac vetra varies
Vetar: varies 4 km/h
Temperatura: 13°C
Tačka rose: 9°C
Vlažnost: 77%
Pritisak: 1023 hPa
Pregled: Vedro
Vidljivost: greater than 10 km
2023/09/30 23:30 BKPR 302330Z VRB02KT CAVOK 13/09 Q1023 NOSIG
 
LHPP - Pecs / Pogany, Hungary
Ažurirano: 01/10/2023 01:15
Vedro
Vedro
 Pravac vetra SZ
Vetar: SZ 17 km/h
Temperatura: 17°C
Tačka rose: 14°C
Vlažnost: 83%
Pritisak: 1023 hPa
Pregled: Vedro
Vidljivost: greater than 10 km
2023/09/30 23:15 LHPP 302315Z AUTO 32009KT CAVOK 17/14 Q1023
LHUD - Szeged, Hungary
Ažurirano: 04/07/2019 01:45
NOT Current
Vedro
Vedro
 Pravac vetra S
Vetar: S 7 km/h
Temperatura: 18°C
Tačka rose: 13°C
Vlažnost: 73%
Pritisak: 1019 hPa
Pregled: Vedro
Vidljivost: greater than 10 km
2019/07/03 23:45 LHUD 032345Z 35004KT CAVOK 18/13 Q1019
LRTR - Timisoara, Romania
Ažurirano: 01/10/2023 01:30
Vedro
Vedro
 Pravac vetra ZSZ
Vetar: ZSZ 9 km/h
Temperatura: 17°C
Tačka rose: 15°C
Vlažnost: 88%
Pritisak: 1020 hPa
Pregled: Vedro
Vidljivost: greater than 10 km
2023/09/30 23:30 LRTR 302330Z 29005KT CAVOK 17/15 Q1020
 
LRCV - Craiova, Romania
Ažurirano: 01/10/2023 01:30
Vedro
Vedro
 Pravac vetra S
Vetar: S 13 km/h
Temperatura: 15°C
Tačka rose: 8°C
Vlažnost: 63%
Pritisak: 1018 hPa
Pregled: Vedro
Vidljivost: greater than 10 km
2023/09/30 23:30 LRCV 302330Z 35007KT CAVOK 15/08 Q1018
LBSF - Sofia, Bulgaria
Ažurirano: 01/10/2023 01:30
Vedro
Vedro
 Pravac vetra JJI
Vetar: JJI 6 km/h
Temperatura: 10°C
Tačka rose: 7°C
Vlažnost: 82%
Pritisak: 1021 hPa
Oblaci: Vedro
Vidljivost: 10 km
2023/09/30 23:30 LBSF 302330Z AUTO 15003KT 120V190 9999 NCD 10/07 Q1021 NOSIG
LWSK - Skoplje, Makedonija
Ažurirano: 01/10/2023 01:30
Partly Cloudy
Partly Cloudy
 Pravac vetra calm
Vetar: Tišina
Temperatura: 19°C
Tačka rose: 8°C
Vlažnost: 49%
Pritisak: 1021 hPa
Oblaci: Partly Cloudy
Vidljivost: 10 km
Cloud details: Few Clouds 1829 m
Partly Cloudy 2743 m
2023/09/30 23:30 LWSK 302330Z 00000KT 9999 FEW060 SCT090 19/08 Q1021 NOSIG
 
LYPG - Podgorica, Crna Gora
Ažurirano: 01/10/2023 01:30
Vedro
Vedro
 Pravac vetra S
Vetar: S 17 km/h
Temperatura: 22°C
Tačka rose: 9°C
Vlažnost: 44%
Pritisak: 1020 hPa
Pregled: Vedro
Vidljivost: greater than 10 km
2023/09/30 23:30 LYPG 302330Z AUTO 35009KT CAVOK 22/09 Q1020
LQSA - Sarajevo, Bosna i Hercegovina
Ažurirano: 01/10/2023 01:30
Few Clouds
Few Clouds
 Pravac vetra J
Vetar: J 2 km/h
Temperatura: 12°C
Tačka rose: 10°C
Vlažnost: 88%
Pritisak: 1025 hPa
Oblaci: Few Clouds
Vidljivost: 10 km
Cloud details: Few Clouds 1372 m
2023/09/30 23:30 LQSA 302330Z 19001KT 9999 FEW045 12/10 Q1025
LDOS - Osijek, Hrvatksa
Ažurirano: 01/10/2023 01:30
Vedro
Vedro
 Pravac vetra Z
Vetar: Z 15 km/h
Temperatura: 16°C
Tačka rose: 14°C
Vlažnost: 88%
Pritisak: 1023 hPa
Pregled: Vedro
Vidljivost: greater than 10 km
2023/09/30 23:30 LDOS 302330Z 28008KT CAVOK 16/14 Q1023